sensor_id;sensor_type;location;lat;lon;timestamp;P1;durP1;ratioP1;P2;durP2;ratioP2
10416;SDS011;62605;49.432;8.680;2023-11-21T00:00:32;1.50;;;1.20;;
10416;SDS011;62605;49.432;8.680;2023-11-21T00:03:14;1.43;;;1.10;;
10416;SDS011;62605;49.432;8.680;2023-11-21T00:06:24;5.03;;;1.17;;
10416;SDS011;62605;49.432;8.680;2023-11-21T00:08:39;7.27;;;1.67;;
10416;SDS011;62605;49.432;8.680;2023-11-21T00:11:19;1.13;;;1.00;;
10416;SDS011;62605;49.432;8.680;2023-11-21T00:14:00;1.40;;;1.00;;
10416;SDS011;62605;49.432;8.680;2023-11-21T00:16:36;2.00;;;1.17;;
10416;SDS011;62605;49.432;8.680;2023-11-21T00:19:08;1.40;;;1.30;;
10416;SDS011;62605;49.432;8.680;2023-11-21T00:21:38;8.57;;;1.60;;
10416;SDS011;62605;49.432;8.680;2023-11-21T00:24:18;4.03;;;1.03;;
10416;SDS011;62605;49.432;8.680;2023-11-21T00:26:47;4.57;;;1.10;;
10416;SDS011;62605;49.432;8.680;2023-11-21T00:29:16;1.33;;;1.00;;
10416;SDS011;62605;49.432;8.680;2023-11-21T00:31:46;2.70;;;1.07;;
10416;SDS011;62605;49.432;8.680;2023-11-21T00:34:14;2.57;;;1.23;;
10416;SDS011;62605;49.432;8.680;2023-11-21T00:36:42;2.77;;;1.67;;
10416;SDS011;62605;49.432;8.680;2023-11-21T00:39:09;2.97;;;1.17;;
10416;SDS011;62605;49.432;8.680;2023-11-21T00:41:40;2.13;;;1.23;;
10416;SDS011;62605;49.432;8.680;2023-11-21T00:44:12;1.33;;;1.23;;
10416;SDS011;62605;49.432;8.680;2023-11-21T00:46:40;3.17;;;1.33;;
10416;SDS011;62605;49.432;8.680;2023-11-21T00:49:11;2.20;;;1.23;;
10416;SDS011;62605;49.432;8.680;2023-11-21T00:51:39;1.60;;;1.00;;
10416;SDS011;62605;49.432;8.680;2023-11-21T00:54:12;1.70;;;1.23;;
10416;SDS011;62605;49.432;8.680;2023-11-21T00:56:42;1.40;;;0.80;;
10416;SDS011;62605;49.432;8.680;2023-11-21T00:59:14;7.40;;;1.67;;
10416;SDS011;62605;49.432;8.680;2023-11-21T01:01:44;1.50;;;1.20;;
10416;SDS011;62605;49.432;8.680;2023-11-21T01:04:15;3.40;;;1.20;;
10416;SDS011;62605;49.432;8.680;2023-11-21T01:06:53;1.23;;;0.80;;
10416;SDS011;62605;49.432;8.680;2023-11-21T01:09:26;2.10;;;0.73;;
10416;SDS011;62605;49.432;8.680;2023-11-21T01:11:58;2.47;;;1.20;;
10416;SDS011;62605;49.432;8.680;2023-11-21T01:14:27;3.07;;;1.20;;
10416;SDS011;62605;49.432;8.680;2023-11-21T01:16:56;3.20;;;1.17;;
10416;SDS011;62605;49.432;8.680;2023-11-21T01:19:24;3.40;;;1.10;;
10416;SDS011;62605;49.432;8.680;2023-11-21T01:21:52;5.10;;;1.87;;
10416;SDS011;62605;49.432;8.680;2023-11-21T01:24:19;0.83;;;0.80;;
10416;SDS011;62605;49.432;8.680;2023-11-21T01:26:50;2.00;;;1.00;;
10416;SDS011;62605;49.432;8.680;2023-11-21T01:29:18;6.33;;;0.87;;
10416;SDS011;62605;49.432;8.680;2023-11-21T01:31:50;6.13;;;1.20;;
10416;SDS011;62605;49.432;8.680;2023-11-21T01:34:18;3.37;;;1.40;;
10416;SDS011;62605;49.432;8.680;2023-11-21T01:36:55;1.23;;;1.07;;
10416;SDS011;62605;49.432;8.680;2023-11-21T01:39:26;2.57;;;0.70;;
10416;SDS011;62605;49.432;8.680;2023-11-21T01:41:54;2.00;;;0.90;;
10416;SDS011;62605;49.432;8.680;2023-11-21T01:44:23;2.23;;;0.97;;
10416;SDS011;62605;49.432;8.680;2023-11-21T01:46:52;1.43;;;1.00;;
10416;SDS011;62605;49.432;8.680;2023-11-21T01:49:23;3.03;;;1.03;;
10416;SDS011;62605;49.432;8.680;2023-11-21T01:51:50;5.47;;;1.20;;
10416;SDS011;62605;49.432;8.680;2023-11-21T01:54:20;2.47;;;0.97;;
10416;SDS011;62605;49.432;8.680;2023-11-21T01:56:48;3.23;;;1.00;;
10416;SDS011;62605;49.432;8.680;2023-11-21T01:59:18;6.50;;;1.17;;
10416;SDS011;62605;49.432;8.680;2023-11-21T02:01:46;3.03;;;1.00;;
10416;SDS011;62605;49.432;8.680;2023-11-21T02:04:17;5.83;;;1.03;;
10416;SDS011;62605;49.432;8.680;2023-11-21T02:06:48;3.07;;;0.90;;
10416;SDS011;62605;49.432;8.680;2023-11-21T02:09:29;3.30;;;1.23;;
10416;SDS011;62605;49.432;8.680;2023-11-21T02:12:03;1.13;;;0.83;;
10416;SDS011;62605;49.432;8.680;2023-11-21T02:14:40;4.57;;;1.50;;
10416;SDS011;62605;49.432;8.680;2023-11-21T02:17:10;0.93;;;0.90;;
10416;SDS011;62605;49.432;8.680;2023-11-21T02:19:41;1.63;;;0.80;;
10416;SDS011;62605;49.432;8.680;2023-11-21T02:22:11;1.00;;;0.90;;
10416;SDS011;62605;49.432;8.680;2023-11-21T02:24:52;0.70;;;0.70;;
10416;SDS011;62605;49.432;8.680;2023-11-21T02:27:58;1.50;;;0.70;;
10416;SDS011;62605;49.432;8.680;2023-11-21T02:30:27;1.70;;;0.80;;
10416;SDS011;62605;49.432;8.680;2023-11-21T02:33:10;1.00;;;0.63;;
10416;SDS011;62605;49.432;8.680;2023-11-21T02:35:42;2.07;;;0.80;;
10416;SDS011;62605;49.432;8.680;2023-11-21T02:39:53;0.60;;;0.60;;
10416;SDS011;62605;49.432;8.680;2023-11-21T02:41:39;0.90;;;0.90;;
10416;SDS011;62605;49.432;8.680;2023-11-21T02:44:06;1.43;;;0.70;;
10416;SDS011;62605;49.432;8.680;2023-11-21T02:47:03;0.77;;;0.67;;
10416;SDS011;62605;49.432;8.680;2023-11-21T02:50:02;2.63;;;0.97;;
10416;SDS011;62605;49.432;8.680;2023-11-21T02:53:33;0.57;;;0.57;;
10416;SDS011;62605;49.432;8.680;2023-11-21T02:56:28;1.37;;;1.27;;
10416;SDS011;62605;49.432;8.680;2023-11-21T02:58:56;2.10;;;1.37;;
10416;SDS011;62605;49.432;8.680;2023-11-21T03:01:24;3.43;;;1.00;;
10416;SDS011;62605;49.432;8.680;2023-11-21T03:03:54;1.00;;;1.00;;
10416;SDS011;62605;49.432;8.680;2023-11-21T03:06:22;1.20;;;1.10;;
10416;SDS011;62605;49.432;8.680;2023-11-21T03:08:52;1.03;;;0.77;;
10416;SDS011;62605;49.432;8.680;2023-11-21T03:11:19;0.90;;;0.83;;
10416;SDS011;62605;49.432;8.680;2023-11-21T03:13:46;3.43;;;1.87;;
10416;SDS011;62605;49.432;8.680;2023-11-21T03:16:16;2.63;;;1.40;;
10416;SDS011;62605;49.432;8.680;2023-11-21T03:18:44;5.50;;;1.40;;
10416;SDS011;62605;49.432;8.680;2023-11-21T03:21:11;3.30;;;1.30;;
10416;SDS011;62605;49.432;8.680;2023-11-21T03:23:38;1.20;;;0.97;;
10416;SDS011;62605;49.432;8.680;2023-11-21T03:26:06;2.23;;;1.40;;
10416;SDS011;62605;49.432;8.680;2023-11-21T03:28:38;1.30;;;1.20;;
10416;SDS011;62605;49.432;8.680;2023-11-21T03:31:05;1.10;;;1.00;;
10416;SDS011;62605;49.432;8.680;2023-11-21T03:33:35;0.73;;;0.73;;
10416;SDS011;62605;49.432;8.680;2023-11-21T03:36:03;4.27;;;1.00;;
10416;SDS011;62605;49.432;8.680;2023-11-21T03:38:31;3.33;;;1.40;;
10416;SDS011;62605;49.432;8.680;2023-11-21T03:40:59;1.10;;;1.00;;
10416;SDS011;62605;49.432;8.680;2023-11-21T03:43:26;5.10;;;1.10;;
10416;SDS011;62605;49.432;8.680;2023-11-21T03:45:53;2.93;;;1.20;;
10416;SDS011;62605;49.432;8.680;2023-11-21T03:48:21;3.50;;;0.80;;
10416;SDS011;62605;49.432;8.680;2023-11-21T03:50:51;2.50;;;1.07;;
10416;SDS011;62605;49.432;8.680;2023-11-21T03:53:19;0.93;;;0.93;;
10416;SDS011;62605;49.432;8.680;2023-11-21T03:55:46;0.57;;;0.57;;
10416;SDS011;62605;49.432;8.680;2023-11-21T03:58:14;0.40;;;0.40;;
10416;SDS011;62605;49.432;8.680;2023-11-21T04:00:41;0.70;;;0.70;;
10416;SDS011;62605;49.432;8.680;2023-11-21T04:03:09;1.20;;;0.80;;
10416;SDS011;62605;49.432;8.680;2023-11-21T04:05:36;2.80;;;1.20;;
10416;SDS011;62605;49.432;8.680;2023-11-21T04:08:05;1.07;;;0.97;;
10416;SDS011;62605;49.432;8.680;2023-11-21T04:10:32;0.90;;;0.90;;
10416;SDS011;62605;49.432;8.680;2023-11-21T04:13:00;1.23;;;1.07;;
10416;SDS011;62605;49.432;8.680;2023-11-21T04:15:30;1.37;;;0.80;;
10416;SDS011;62605;49.432;8.680;2023-11-21T04:17:57;1.03;;;1.00;;
10416;SDS011;62605;49.432;8.680;2023-11-21T04:20:25;0.70;;;0.70;;
10416;SDS011;62605;49.432;8.680;2023-11-21T04:22:52;0.90;;;0.90;;
10416;SDS011;62605;49.432;8.680;2023-11-21T04:25:21;1.47;;;1.20;;
10416;SDS011;62605;49.432;8.680;2023-11-21T04:27:49;1.17;;;1.03;;
10416;SDS011;62605;49.432;8.680;2023-11-21T04:30:16;1.33;;;1.00;;
10416;SDS011;62605;49.432;8.680;2023-11-21T04:32:44;1.70;;;1.60;;
10416;SDS011;62605;49.432;8.680;2023-11-21T04:35:11;2.20;;;1.10;;
10416;SDS011;62605;49.432;8.680;2023-11-21T04:37:39;1.10;;;1.00;;
10416;SDS011;62605;49.432;8.680;2023-11-21T04:40:06;2.20;;;1.20;;
10416;SDS011;62605;49.432;8.680;2023-11-21T04:42:36;1.10;;;0.90;;
10416;SDS011;62605;49.432;8.680;2023-11-21T04:45:04;2.07;;;0.97;;
10416;SDS011;62605;49.432;8.680;2023-11-21T04:47:34;0.93;;;0.83;;
10416;SDS011;62605;49.432;8.680;2023-11-21T04:50:02;0.90;;;0.90;;
10416;SDS011;62605;49.432;8.680;2023-11-21T04:52:29;0.70;;;0.70;;
10416;SDS011;62605;49.432;8.680;2023-11-21T04:54:58;1.07;;;0.87;;
10416;SDS011;62605;49.432;8.680;2023-11-21T04:57:26;1.77;;;0.97;;
10416;SDS011;62605;49.432;8.680;2023-11-21T04:59:56;0.97;;;0.97;;
10416;SDS011;62605;49.432;8.680;2023-11-21T05:02:23;2.40;;;1.17;;
10416;SDS011;62605;49.432;8.680;2023-11-21T05:04:50;1.20;;;1.07;;
10416;SDS011;62605;49.432;8.680;2023-11-21T05:07:18;1.70;;;1.10;;
10416;SDS011;62605;49.432;8.680;2023-11-21T05:09:46;11.27;;;1.20;;
10416;SDS011;62605;49.432;8.680;2023-11-21T05:12:13;3.53;;;1.20;;
10416;SDS011;62605;49.432;8.680;2023-11-21T05:14:40;1.10;;;1.00;;
10416;SDS011;62605;49.432;8.680;2023-11-21T05:17:10;2.47;;;1.00;;
10416;SDS011;62605;49.432;8.680;2023-11-21T05:19:37;1.13;;;0.90;;
10416;SDS011;62605;49.432;8.680;2023-11-21T05:22:05;1.20;;;1.10;;
10416;SDS011;62605;49.432;8.680;2023-11-21T05:24:33;1.10;;;1.10;;
10416;SDS011;62605;49.432;8.680;2023-11-21T05:27:01;1.33;;;1.00;;
10416;SDS011;62605;49.432;8.680;2023-11-21T05:29:30;2.07;;;1.33;;
10416;SDS011;62605;49.432;8.680;2023-11-21T05:31:57;1.30;;;1.20;;
10416;SDS011;62605;49.432;8.680;2023-11-21T05:34:25;1.43;;;1.33;;
10416;SDS011;62605;49.432;8.680;2023-11-21T05:36:53;2.73;;;1.50;;
10416;SDS011;62605;49.432;8.680;2023-11-21T05:39:20;1.83;;;1.47;;
10416;SDS011;62605;49.432;8.680;2023-11-21T05:41:47;2.73;;;1.70;;
10416;SDS011;62605;49.432;8.680;2023-11-21T05:44:15;1.33;;;1.23;;
10416;SDS011;62605;49.432;8.680;2023-11-21T05:46:43;1.33;;;1.20;;
10416;SDS011;62605;49.432;8.680;2023-11-21T05:49:10;1.67;;;1.33;;
10416;SDS011;62605;49.432;8.680;2023-11-21T05:51:39;1.20;;;1.07;;
10416;SDS011;62605;49.432;8.680;2023-11-21T05:54:06;2.23;;;1.50;;
10416;SDS011;62605;49.432;8.680;2023-11-21T05:56:35;3.23;;;1.57;;
10416;SDS011;62605;49.432;8.680;2023-11-21T05:59:04;1.63;;;1.53;;
10416;SDS011;62605;49.432;8.680;2023-11-21T06:01:31;2.47;;;1.97;;
10416;SDS011;62605;49.432;8.680;2023-11-21T06:04:00;2.40;;;2.20;;
10416;SDS011;62605;49.432;8.680;2023-11-21T06:06:28;2.10;;;1.90;;
10416;SDS011;62605;49.432;8.680;2023-11-21T06:08:57;2.17;;;1.90;;
10416;SDS011;62605;49.432;8.680;2023-11-21T06:11:26;3.57;;;1.70;;
10416;SDS011;62605;49.432;8.680;2023-11-21T06:14:07;2.50;;;2.03;;
10416;SDS011;62605;49.432;8.680;2023-11-21T06:16:36;3.00;;;2.40;;
10416;SDS011;62605;49.432;8.680;2023-11-21T06:19:03;3.73;;;2.20;;
10416;SDS011;62605;49.432;8.680;2023-11-21T06:21:30;3.23;;;2.50;;
10416;SDS011;62605;49.432;8.680;2023-11-21T06:24:00;3.20;;;1.90;;
10416;SDS011;62605;49.432;8.680;2023-11-21T06:26:28;2.60;;;2.33;;
10416;SDS011;62605;49.432;8.680;2023-11-21T06:28:57;2.57;;;2.30;;
10416;SDS011;62605;49.432;8.680;2023-11-21T06:31:24;3.57;;;2.23;;
10416;SDS011;62605;49.432;8.680;2023-11-21T06:33:51;2.57;;;2.10;;
10416;SDS011;62605;49.432;8.680;2023-11-21T06:36:19;4.57;;;2.23;;
10416;SDS011;62605;49.432;8.680;2023-11-21T06:38:46;1.90;;;1.80;;
10416;SDS011;62605;49.432;8.680;2023-11-21T06:41:16;2.50;;;2.30;;
10416;SDS011;62605;49.432;8.680;2023-11-21T06:43:46;3.30;;;2.03;;
10416;SDS011;62605;49.432;8.680;2023-11-21T06:46:15;2.67;;;1.97;;
10416;SDS011;62605;49.432;8.680;2023-11-21T06:48:50;3.20;;;2.20;;
10416;SDS011;62605;49.432;8.680;2023-11-21T06:51:18;2.47;;;2.03;;
10416;SDS011;62605;49.432;8.680;2023-11-21T06:53:45;2.50;;;1.80;;
10416;SDS011;62605;49.432;8.680;2023-11-21T06:56:18;2.60;;;2.03;;
10416;SDS011;62605;49.432;8.680;2023-11-21T06:58:45;2.13;;;1.70;;
10416;SDS011;62605;49.432;8.680;2023-11-21T07:01:13;2.50;;;2.13;;
10416;SDS011;62605;49.432;8.680;2023-11-21T07:03:40;4.07;;;2.23;;
10416;SDS011;62605;49.432;8.680;2023-11-21T07:06:08;2.30;;;2.10;;
10416;SDS011;62605;49.432;8.680;2023-11-21T07:08:37;3.07;;;2.60;;
10416;SDS011;62605;49.432;8.680;2023-11-21T07:11:05;2.73;;;1.97;;
10416;SDS011;62605;49.432;8.680;2023-11-21T07:13:34;2.73;;;2.00;;
10416;SDS011;62605;49.432;8.680;2023-11-21T07:16:02;4.37;;;2.37;;
10416;SDS011;62605;49.432;8.680;2023-11-21T07:18:29;5.87;;;2.93;;
10416;SDS011;62605;49.432;8.680;2023-11-21T07:20:58;4.07;;;3.30;;
10416;SDS011;62605;49.432;8.680;2023-11-21T07:23:25;5.60;;;3.60;;
10416;SDS011;62605;49.432;8.680;2023-11-21T07:25:53;3.20;;;2.77;;
10416;SDS011;62605;49.432;8.680;2023-11-21T07:28:21;3.23;;;2.23;;
10416;SDS011;62605;49.432;8.680;2023-11-21T07:30:50;2.67;;;2.20;;
10416;SDS011;62605;49.432;8.680;2023-11-21T07:33:17;3.13;;;2.63;;
10416;SDS011;62605;49.432;8.680;2023-11-21T07:35:47;3.60;;;2.20;;
10416;SDS011;62605;49.432;8.680;2023-11-21T07:38:14;2.50;;;2.27;;
10416;SDS011;62605;49.432;8.680;2023-11-21T07:40:42;8.67;;;2.80;;
10416;SDS011;62605;49.432;8.680;2023-11-21T07:43:12;3.63;;;3.23;;
10416;SDS011;62605;49.432;8.680;2023-11-21T07:45:46;10.33;;;3.30;;
10416;SDS011;62605;49.432;8.680;2023-11-21T07:48:16;7.97;;;3.50;;
10416;SDS011;62605;49.432;8.680;2023-11-21T07:50:43;3.70;;;2.83;;
10416;SDS011;62605;49.432;8.680;2023-11-21T07:53:12;4.73;;;3.07;;
10416;SDS011;62605;49.432;8.680;2023-11-21T07:55:39;5.43;;;3.80;;
10416;SDS011;62605;49.432;8.680;2023-11-21T07:58:07;8.20;;;3.87;;
10416;SDS011;62605;49.432;8.680;2023-11-21T08:00:37;7.03;;;4.37;;
10416;SDS011;62605;49.432;8.680;2023-11-21T08:03:05;4.47;;;3.70;;
10416;SDS011;62605;49.432;8.680;2023-11-21T08:05:36;7.53;;;4.10;;
10416;SDS011;62605;49.432;8.680;2023-11-21T08:08:04;6.60;;;4.17;;
10416;SDS011;62605;49.432;8.680;2023-11-21T08:10:31;6.87;;;4.00;;
10416;SDS011;62605;49.432;8.680;2023-11-21T08:12:59;5.37;;;4.03;;
10416;SDS011;62605;49.432;8.680;2023-11-21T08:15:26;9.73;;;5.03;;
10416;SDS011;62605;49.432;8.680;2023-11-21T08:17:54;5.03;;;3.83;;
10416;SDS011;62605;49.432;8.680;2023-11-21T08:20:25;6.70;;;4.00;;
10416;SDS011;62605;49.432;8.680;2023-11-21T08:22:56;7.77;;;4.60;;
10416;SDS011;62605;49.432;8.680;2023-11-21T08:25:30;8.20;;;4.07;;
10416;SDS011;62605;49.432;8.680;2023-11-21T08:27:58;5.70;;;3.60;;
10416;SDS011;62605;49.432;8.680;2023-11-21T08:30:26;6.87;;;4.40;;
10416;SDS011;62605;49.432;8.680;2023-11-21T08:32:55;7.60;;;4.13;;
10416;SDS011;62605;49.432;8.680;2023-11-21T08:35:23;6.43;;;4.00;;
10416;SDS011;62605;49.432;8.680;2023-11-21T08:37:51;6.83;;;3.83;;
10416;SDS011;62605;49.432;8.680;2023-11-21T08:40:20;5.27;;;3.40;;
10416;SDS011;62605;49.432;8.680;2023-11-21T08:42:48;5.43;;;3.77;;
10416;SDS011;62605;49.432;8.680;2023-11-21T08:45:17;6.80;;;3.30;;
10416;SDS011;62605;49.432;8.680;2023-11-21T08:47:52;5.70;;;3.73;;
10416;SDS011;62605;49.432;8.680;2023-11-21T08:50:21;4.73;;;3.27;;
10416;SDS011;62605;49.432;8.680;2023-11-21T08:52:48;3.10;;;2.50;;
10416;SDS011;62605;49.432;8.680;2023-11-21T08:55:16;3.43;;;2.43;;
10416;SDS011;62605;49.432;8.680;2023-11-21T08:57:46;3.23;;;2.70;;
10416;SDS011;62605;49.432;8.680;2023-11-21T09:00:14;3.93;;;2.97;;
10416;SDS011;62605;49.432;8.680;2023-11-21T09:02:42;2.93;;;2.60;;
10416;SDS011;62605;49.432;8.680;2023-11-21T09:05:11;4.90;;;2.60;;
10416;SDS011;62605;49.432;8.680;2023-11-21T09:07:39;3.37;;;2.63;;
10416;SDS011;62605;49.432;8.680;2023-11-21T09:10:08;3.87;;;2.67;;
10416;SDS011;62605;49.432;8.680;2023-11-21T09:12:36;3.57;;;2.43;;
10416;SDS011;62605;49.432;8.680;2023-11-21T09:15:05;5.53;;;2.00;;
10416;SDS011;62605;49.432;8.680;2023-11-21T09:17:35;4.40;;;2.90;;
10416;SDS011;62605;49.432;8.680;2023-11-21T09:20:02;7.17;;;3.57;;
10416;SDS011;62605;49.432;8.680;2023-11-21T09:22:31;5.07;;;3.30;;
10416;SDS011;62605;49.432;8.680;2023-11-21T09:24:58;5.07;;;3.33;;
10416;SDS011;62605;49.432;8.680;2023-11-21T09:27:26;5.03;;;3.47;;
10416;SDS011;62605;49.432;8.680;2023-11-21T09:29:53;4.40;;;2.90;;
10416;SDS011;62605;49.432;8.680;2023-11-21T09:32:22;5.03;;;3.63;;
10416;SDS011;62605;49.432;8.680;2023-11-21T09:34:50;7.73;;;4.80;;
10416;SDS011;62605;49.432;8.680;2023-11-21T09:37:18;11.43;;;5.00;;
10416;SDS011;62605;49.432;8.680;2023-11-21T09:39:45;7.90;;;4.20;;
10416;SDS011;62605;49.432;8.680;2023-11-21T09:42:15;4.40;;;2.90;;
10416;SDS011;62605;49.432;8.680;2023-11-21T09:44:51;3.50;;;2.40;;
10416;SDS011;62605;49.432;8.680;2023-11-21T09:47:34;3.90;;;2.90;;
10416;SDS011;62605;49.432;8.680;2023-11-21T09:50:05;3.03;;;2.53;;
10416;SDS011;62605;49.432;8.680;2023-11-21T09:52:36;3.10;;;2.17;;
10416;SDS011;62605;49.432;8.680;2023-11-21T09:55:16;2.87;;;1.97;;
10416;SDS011;62605;49.432;8.680;2023-11-21T09:57:45;2.37;;;1.47;;
10416;SDS011;62605;49.432;8.680;2023-11-21T10:00:14;1.30;;;1.20;;
10416;SDS011;62605;49.432;8.680;2023-11-21T10:02:44;2.63;;;1.20;;
10416;SDS011;62605;49.432;8.680;2023-11-21T10:05:12;1.70;;;1.40;;
10416;SDS011;62605;49.432;8.680;2023-11-21T10:07:40;1.20;;;1.10;;
10416;SDS011;62605;49.432;8.680;2023-11-21T10:10:10;1.00;;;1.00;;
10416;SDS011;62605;49.432;8.680;2023-11-21T10:12:38;1.53;;;1.30;;
10416;SDS011;62605;49.432;8.680;2023-11-21T10:15:09;1.67;;;1.37;;
10416;SDS011;62605;49.432;8.680;2023-11-21T10:17:41;1.63;;;1.50;;
10416;SDS011;62605;49.432;8.680;2023-11-21T10:20:14;1.70;;;1.60;;
10416;SDS011;62605;49.432;8.680;2023-11-21T10:22:42;2.83;;;1.27;;
10416;SDS011;62605;49.432;8.680;2023-11-21T10:25:09;1.70;;;1.60;;
10416;SDS011;62605;49.432;8.680;2023-11-21T10:27:39;1.43;;;1.33;;
10416;SDS011;62605;49.432;8.680;2023-11-21T10:30:09;1.83;;;1.47;;
10416;SDS011;62605;49.432;8.680;2023-11-21T10:32:37;2.60;;;1.60;;
10416;SDS011;62605;49.432;8.680;2023-11-21T10:35:07;1.87;;;1.57;;
10416;SDS011;62605;49.432;8.680;2023-11-21T10:37:36;1.70;;;1.60;;
10416;SDS011;62605;49.432;8.680;2023-11-21T10:40:05;2.53;;;1.53;;
10416;SDS011;62605;49.432;8.680;2023-11-21T10:42:37;3.03;;;2.17;;
10416;SDS011;62605;49.432;8.680;2023-11-21T10:45:05;2.67;;;1.90;;
10416;SDS011;62605;49.432;8.680;2023-11-21T10:47:38;3.63;;;2.23;;
10416;SDS011;62605;49.432;8.680;2023-11-21T10:50:07;2.10;;;1.70;;
10416;SDS011;62605;49.432;8.680;2023-11-21T10:52:36;2.63;;;2.10;;
10416;SDS011;62605;49.432;8.680;2023-11-21T10:55:15;3.07;;;2.23;;
10416;SDS011;62605;49.432;8.680;2023-11-21T10:57:44;4.00;;;2.67;;
10416;SDS011;62605;49.432;8.680;2023-11-21T11:00:15;3.40;;;2.47;;
10416;SDS011;62605;49.432;8.680;2023-11-21T11:02:45;3.90;;;2.90;;
10416;SDS011;62605;49.432;8.680;2023-11-21T11:05:16;4.07;;;3.03;;
10416;SDS011;62605;49.432;8.680;2023-11-21T11:07:47;3.47;;;2.73;;
10416;SDS011;62605;49.432;8.680;2023-11-21T11:10:19;3.90;;;2.83;;
10416;SDS011;62605;49.432;8.680;2023-11-21T11:12:48;4.30;;;2.87;;
10416;SDS011;62605;49.432;8.680;2023-11-21T11:15:17;4.87;;;2.70;;
10416;SDS011;62605;49.432;8.680;2023-11-21T11:17:46;4.40;;;3.20;;
10416;SDS011;62605;49.432;8.680;2023-11-21T11:20:16;5.70;;;3.53;;
10416;SDS011;62605;49.432;8.680;2023-11-21T11:22:48;4.67;;;2.80;;
10416;SDS011;62605;49.432;8.680;2023-11-21T11:25:35;5.43;;;3.30;;
10416;SDS011;62605;49.432;8.680;2023-11-21T11:28:14;2.77;;;2.40;;
10416;SDS011;62605;49.432;8.680;2023-11-21T11:30:49;4.40;;;2.73;;
10416;SDS011;62605;49.432;8.680;2023-11-21T11:33:30;3.07;;;2.40;;
10416;SDS011;62605;49.432;8.680;2023-11-21T11:36:05;4.47;;;2.43;;
10416;SDS011;62605;49.432;8.680;2023-11-21T11:38:37;3.80;;;2.57;;
10416;SDS011;62605;49.432;8.680;2023-11-21T11:41:07;3.93;;;2.60;;
10416;SDS011;62605;49.432;8.680;2023-11-21T11:43:35;4.20;;;2.43;;
10416;SDS011;62605;49.432;8.680;2023-11-21T11:46:09;4.60;;;2.70;;
10416;SDS011;62605;49.432;8.680;2023-11-21T11:48:39;5.17;;;2.60;;
10416;SDS011;62605;49.432;8.680;2023-11-21T11:51:11;4.27;;;2.57;;
10416;SDS011;62605;49.432;8.680;2023-11-21T11:53:39;4.00;;;2.53;;
10416;SDS011;62605;49.432;8.680;2023-11-21T11:56:23;3.13;;;2.40;;
10416;SDS011;62605;49.432;8.680;2023-11-21T11:58:53;2.73;;;2.40;;
10416;SDS011;62605;49.432;8.680;2023-11-21T12:01:21;3.33;;;2.63;;
10416;SDS011;62605;49.432;8.680;2023-11-21T12:07:04;3.40;;;2.10;;
10416;SDS011;62605;49.432;8.680;2023-11-21T12:09:33;2.67;;;2.07;;
10416;SDS011;62605;49.432;8.680;2023-11-21T12:12:01;3.10;;;2.03;;
10416;SDS011;62605;49.432;8.680;2023-11-21T12:14:29;2.07;;;1.80;;
10416;SDS011;62605;49.432;8.680;2023-11-21T12:16:58;3.30;;;2.47;;
10416;SDS011;62605;49.432;8.680;2023-11-21T12:19:25;3.00;;;2.07;;
10416;SDS011;62605;49.432;8.680;2023-11-21T12:21:52;2.97;;;2.40;;
10416;SDS011;62605;49.432;8.680;2023-11-21T12:24:22;2.67;;;2.13;;
10416;SDS011;62605;49.432;8.680;2023-11-21T12:26:49;1.90;;;1.70;;
10416;SDS011;62605;49.432;8.680;2023-11-21T12:29:16;4.07;;;2.20;;
10416;SDS011;62605;49.432;8.680;2023-11-21T12:31:44;2.43;;;2.00;;
10416;SDS011;62605;49.432;8.680;2023-11-21T12:34:12;2.30;;;2.00;;
10416;SDS011;62605;49.432;8.680;2023-11-21T12:36:39;2.90;;;1.70;;
10416;SDS011;62605;49.432;8.680;2023-11-21T12:39:06;3.43;;;1.50;;
10416;SDS011;62605;49.432;8.680;2023-11-21T12:41:37;1.83;;;1.37;;
10416;SDS011;62605;49.432;8.680;2023-11-21T12:44:08;2.33;;;1.53;;
10416;SDS011;62605;49.432;8.680;2023-11-21T12:46:41;2.53;;;1.83;;
10416;SDS011;62605;49.432;8.680;2023-11-21T12:49:10;2.13;;;1.77;;
10416;SDS011;62605;49.432;8.680;2023-11-21T12:51:42;2.00;;;1.70;;
10416;SDS011;62605;49.432;8.680;2023-11-21T12:54:10;1.57;;;1.37;;
10416;SDS011;62605;49.432;8.680;2023-11-21T12:56:39;1.20;;;1.10;;
10416;SDS011;62605;49.432;8.680;2023-11-21T12:59:07;2.60;;;1.40;;
10416;SDS011;62605;49.432;8.680;2023-11-21T13:01:38;4.20;;;1.77;;
10416;SDS011;62605;49.432;8.680;2023-11-21T13:04:08;1.63;;;1.00;;
10416;SDS011;62605;49.432;8.680;2023-11-21T13:06:36;1.87;;;0.83;;
10416;SDS011;62605;49.432;8.680;2023-11-21T13:09:06;2.97;;;1.33;;
10416;SDS011;62605;49.432;8.680;2023-11-21T13:11:36;1.17;;;1.00;;
10416;SDS011;62605;49.432;8.680;2023-11-21T13:14:07;0.70;;;0.70;;
10416;SDS011;62605;49.432;8.680;2023-11-21T13:16:36;0.80;;;0.80;;
10416;SDS011;62605;49.432;8.680;2023-11-21T13:19:04;1.47;;;1.30;;
10416;SDS011;62605;49.432;8.680;2023-11-21T13:21:31;1.10;;;1.10;;
10416;SDS011;62605;49.432;8.680;2023-11-21T13:23:58;1.00;;;0.90;;
10416;SDS011;62605;49.432;8.680;2023-11-21T13:26:25;1.13;;;0.80;;
10416;SDS011;62605;49.432;8.680;2023-11-21T13:28:53;0.60;;;0.60;;
10416;SDS011;62605;49.432;8.680;2023-11-21T13:31:25;1.47;;;1.00;;
10416;SDS011;62605;49.432;8.680;2023-11-21T13:33:56;2.70;;;0.83;;
10416;SDS011;62605;49.432;8.680;2023-11-21T13:36:30;0.60;;;0.60;;
10416;SDS011;62605;49.432;8.680;2023-11-21T13:38:58;0.80;;;0.80;;
10416;SDS011;62605;49.432;8.680;2023-11-21T13:41:36;0.70;;;0.70;;
10416;SDS011;62605;49.432;8.680;2023-11-21T13:44:03;1.37;;;0.83;;
10416;SDS011;62605;49.432;8.680;2023-11-21T13:46:42;1.10;;;1.00;;
10416;SDS011;62605;49.432;8.680;2023-11-21T13:49:11;0.73;;;0.63;;
10416;SDS011;62605;49.432;8.680;2023-11-21T13:51:38;1.00;;;0.87;;
10416;SDS011;62605;49.432;8.680;2023-11-21T13:54:09;0.50;;;0.50;;
10416;SDS011;62605;49.432;8.680;2023-11-21T13:56:36;0.70;;;0.70;;
10416;SDS011;62605;49.432;8.680;2023-11-21T13:59:05;0.77;;;0.67;;
10416;SDS011;62605;49.432;8.680;2023-11-21T14:01:45;1.20;;;0.80;;
10416;SDS011;62605;49.432;8.680;2023-11-21T14:04:20;0.80;;;0.80;;
10416;SDS011;62605;49.432;8.680;2023-11-21T14:07:00;1.17;;;1.00;;
10416;SDS011;62605;49.432;8.680;2023-11-21T14:09:47;1.67;;;1.20;;
10416;SDS011;62605;49.432;8.680;2023-11-21T14:12:15;1.20;;;1.10;;
10416;SDS011;62605;49.432;8.680;2023-11-21T14:14:42;1.40;;;1.20;;
10416;SDS011;62605;49.432;8.680;2023-11-21T14:17:12;1.47;;;1.30;;
10416;SDS011;62605;49.432;8.680;2023-11-21T14:19:39;1.37;;;1.27;;
10416;SDS011;62605;49.432;8.680;2023-11-21T14:22:08;2.77;;;1.30;;
10416;SDS011;62605;49.432;8.680;2023-11-21T14:24:36;1.80;;;1.30;;
10416;SDS011;62605;49.432;8.680;2023-11-21T14:27:09;1.67;;;1.30;;
10416;SDS011;62605;49.432;8.680;2023-11-21T14:29:36;2.47;;;1.23;;
10416;SDS011;62605;49.432;8.680;2023-11-21T14:32:08;0.90;;;0.90;;
10416;SDS011;62605;49.432;8.680;2023-11-21T14:34:37;3.47;;;0.90;;
10416;SDS011;62605;49.432;8.680;2023-11-21T14:37:06;2.10;;;1.03;;
10416;SDS011;62605;49.432;8.680;2023-11-21T14:39:33;1.57;;;0.90;;
10416;SDS011;62605;49.432;8.680;2023-11-21T14:42:05;1.80;;;0.80;;
10416;SDS011;62605;49.432;8.680;2023-11-21T14:44:33;2.30;;;1.10;;
10416;SDS011;62605;49.432;8.680;2023-11-21T14:47:04;2.87;;;1.00;;
10416;SDS011;62605;49.432;8.680;2023-11-21T14:49:41;1.07;;;0.70;;
10416;SDS011;62605;49.432;8.680;2023-11-21T14:52:17;0.97;;;0.90;;
10416;SDS011;62605;49.432;8.680;2023-11-21T14:54:58;1.10;;;1.00;;
10416;SDS011;62605;49.432;8.680;2023-11-21T14:57:45;1.20;;;1.10;;
10416;SDS011;62605;49.432;8.680;2023-11-21T15:00:15;0.80;;;0.80;;
10416;SDS011;62605;49.432;8.680;2023-11-21T15:06:23;1.57;;;1.17;;
10416;SDS011;62605;49.432;8.680;2023-11-21T15:08:55;4.37;;;1.07;;
10416;SDS011;62605;49.432;8.680;2023-11-21T15:11:40;1.73;;;1.07;;
10416;SDS011;62605;49.432;8.680;2023-11-21T15:14:07;1.20;;;1.10;;